Time;durP1;ratioP1;P1;durP2;ratioP2;P2;SDS_P1;SDS_P2;PMS_P1;PMS_P2;Temp;Humidity;BMP_temperature;BMP_pressure;BME280_temperature;BME280_humidity;BME280_pressure;Samples;Min_cycle;Max_cycle;Signal;HPM_P1;HPM_P2
2023/04/16 00:00:06;;;;;;;;;;;;;;;18.12;64.25;100769.55;2209366;80;50517;-77
2023/04/16 00:03:08;;;;;;;;;;;;;;;18.13;64.06;100771.20;2230238;80;51594;-76
2023/04/16 00:06:11;;;;;;;;;;;;;;;18.21;63.99;100776.51;2185745;80;51491;-76
2023/04/16 00:09:13;;;;;;;;;;;;;;;18.25;63.94;100773.30;2209557;80;51447;-76
2023/04/16 00:12:14;;;;;;;;;;;;;;;18.25;63.95;100776.49;2230161;80;51451;-76
2023/04/16 00:15:16;;;;;;;;;;;;;;;18.24;64.30;100779.69;2230044;80;51498;-77
2023/04/16 00:18:19;;;;;;;;;;;;;;;18.22;64.26;100784.38;2209314;78;52385;-76
2023/04/16 00:21:21;;;;;;;;;;;;;;;18.20;64.47;100782.88;2249689;78;50684;-76
2023/04/16 00:24:22;;;;;;;;;;;;;;;18.16;64.83;100774.86;2288861;77;51495;-77
2023/04/16 00:27:24;;;;;;;;;;;;;;;18.16;64.89;100777.55;2288549;77;53550;-75
2023/04/16 00:30:25;;;;;;;;;;;;;;;18.15;64.96;100775.89;2215777;78;50203;-76
2023/04/16 00:33:28;;;;;;;;;;;;;;;18.14;64.90;100779.08;2264510;78;51442;-77
2023/04/16 00:36:30;;;;;;;;;;;;;;;18.16;64.91;100784.23;2279021;77;50357;-76
2023/04/16 00:39:32;;;;;;;;;;;;;;;18.16;64.77;100781.56;2219802;79;49864;-76
2023/04/16 00:42:35;;;;;;;;;;;;;;;18.18;64.75;100782.22;2219810;79;50513;-77
2023/04/16 00:45:36;;;;;;;;;;;;;;;18.20;64.54;100780.20;2217705;79;22762;-77
2023/04/16 00:48:39;;;;;;;;;;;;;;;18.19;64.38;100785.25;2260707;78;51484;-77
2023/04/16 00:51:40;;;;;;;;;;;;;;;18.22;64.34;100779.53;2264769;77;51486;-77
2023/04/16 00:54:42;;;;;;;;;;;;;;;18.28;64.27;100786.84;2228957;79;51644;-77
2023/04/16 00:57:44;;;;;;;;;;;;;;;18.26;64.45;100788.38;2204277;80;51417;-77
2023/04/16 01:00:46;;;;;;;;;;;;;;;18.23;64.51;100783.86;2192424;80;50419;-76
2023/04/16 01:03:48;;;;;;;;;;;;;;;18.22;64.44;100788.91;2191683;80;50093;-77
2023/04/16 01:06:50;;;;;;;;;;;;;;;18.21;64.51;100788.08;2229073;79;51249;-77
2023/04/16 01:09:51;;;;;;;;;;;;;;;18.22;64.56;100790.25;2204279;79;51515;-76
2023/04/16 01:12:53;;;;;;;;;;;;;;;18.17;64.71;100799.31;2240613;79;51485;-76
2023/04/16 01:15:54;;;;;;;;;;;;;;;18.16;64.62;100795.81;2192692;80;50039;-76
2023/04/16 01:18:56;;;;;;;;;;;;;;;18.16;64.64;100796.29;2222870;79;52373;-76
2023/04/16 01:21:58;;;;;;;;;;;;;;;18.16;64.66;100807.86;2227436;79;50826;-76
2023/04/16 01:24:59;;;;;;;;;;;;;;;18.14;64.69;100803.69;2252298;78;51486;-76
2023/04/16 01:28:01;;;;;;;;;;;;;;;18.15;64.72;100809.36;2276335;78;51625;-76
2023/04/16 01:31:03;;;;;;;;;;;;;;;18.12;64.85;100805.19;2252352;78;50270;-77
2023/04/16 01:34:04;;;;;;;;;;;;;;;18.13;64.75;100805.51;2252490;78;50281;-76
2023/04/16 01:37:06;;;;;;;;;;;;;;;18.10;64.77;100807.72;2275972;78;51608;-76
2023/04/16 01:40:08;;;;;;;;;;;;;;;18.13;64.68;100808.70;2276222;78;50845;-76
2023/04/16 01:43:10;;;;;;;;;;;;;;;18.22;64.47;100812.50;2252273;78;50808;-75
2023/04/16 01:46:22;;;;;;;;;;;;;;;18.27;64.54;100813.31;2275746;78;50394;-76
2023/04/16 01:49:23;;;;;;;;;;;;;;;18.25;64.67;100811.31;2270851;78;50005;-75
2023/04/16 01:52:25;;;;;;;;;;;;;;;18.27;64.49;100817.33;2252492;78;50229;-76
2023/04/16 01:55:26;;;;;;;;;;;;;;;18.23;64.40;100815.49;2228877;78;50291;-76
2023/04/16 01:58:29;;;;;;;;;;;;;;;18.16;64.53;100813.70;2229084;78;51502;-76
2023/04/16 02:01:30;;;;;;;;;;;;;;;18.16;65.02;100824.41;2240385;78;50777;-76
2023/04/16 02:04:32;;;;;;;;;;;;;;;18.17;64.86;100820.23;2240118;78;50304;-76
2023/04/16 02:07:33;;;;;;;;;;;;;;;18.23;64.76;100826.20;2240509;78;50169;-76
2023/04/16 02:10:35;;;;;;;;;;;;;;;18.22;64.81;100830.42;2228968;78;50441;-76
2023/04/16 02:13:37;;;;;;;;;;;;;;;18.19;64.92;100828.93;2229036;79;50098;-75
2023/04/16 02:16:38;;;;;;;;;;;;;;;18.17;64.96;100825.58;2240237;78;50667;-76
2023/04/16 02:19:40;;;;;;;;;;;;;;;18.16;65.10;100833.30;2216272;78;51071;-76
2023/04/16 02:22:42;;;;;;;;;;;;;;;18.17;65.08;100835.47;2228568;78;50330;-75
2023/04/16 02:25:44;;;;;;;;;;;;;;;18.16;65.05;100836.45;2202136;80;50381;-76
2023/04/16 02:28:46;;;;;;;;;;;;;;;18.17;65.03;100836.81;2222574;80;50689;-76
2023/04/16 02:31:48;;;;;;;;;;;;;;;18.17;65.12;100840.83;2202234;80;52527;-77
2023/04/16 02:34:49;;;;;;;;;;;;;;;18.18;65.04;100833.94;2202019;80;51663;-76
2023/04/16 02:37:51;;;;;;;;;;;;;;;18.16;64.86;100837.80;2201955;80;51441;-76
2023/04/16 02:40:53;;;;;;;;;;;;;;;18.19;64.75;100838.81;2222509;80;51527;-76
2023/04/16 02:43:55;;;;;;;;;;;;;;;18.18;64.72;100841.14;2178563;80;52104;-76
2023/04/16 02:46:56;;;;;;;;;;;;;;;18.15;64.75;100846.86;2222508;80;50861;-77
2023/04/16 02:49:58;;;;;;;;;;;;;;;18.13;64.75;100844.34;2207807;80;51473;-77
2023/04/16 02:53:00;;;;;;;;;;;;;;;18.11;64.84;100845.05;2270742;78;51459;-76
2023/04/16 02:56:01;;;;;;;;;;;;;;;18.11;64.87;100848.20;2215771;79;50652;-77
2023/04/16 02:59:03;;;;;;;;;;;;;;;18.10;64.78;100853.23;2252383;78;50295;-78
2023/04/16 03:02:04;;;;;;;;;;;;;;;18.09;64.84;100848.91;2276188;78;50741;-77
2023/04/16 03:05:06;;;;;;;;;;;;;;;18.10;64.73;100849.22;2276055;78;51550;-76
2023/04/16 03:08:08;;;;;;;;;;;;;;;18.11;64.80;100846.86;2252644;78;51018;-76
2023/04/16 03:11:09;;;;;;;;;;;;;;;18.15;64.68;100853.55;2252397;78;53538;-76
2023/04/16 03:14:11;;;;;;;;;;;;;;;18.18;64.66;100857.21;2252322;78;51456;-75
2023/04/16 03:17:12;;;;;;;;;;;;;;;18.18;64.74;100858.04;2254349;78;51468;-77
2023/04/16 03:20:15;;;;;;;;;;;;;;;18.18;64.69;100862.05;2229744;79;50982;-76
2023/04/16 03:23:17;;;;;;;;;;;;;;;18.16;64.70;100857.41;2202519;80;50346;-76
2023/04/16 03:26:19;;;;;;;;;;;;;;;18.19;64.75;100858.39;2222516;80;50660;-77
2023/04/16 03:29:21;;;;;;;;;;;;;;;18.22;64.67;100868.74;2232232;78;50420;-76
2023/04/16 03:32:22;;;;;;;;;;;;;;;18.22;64.87;100871.94;2261265;77;51609;-77
2023/04/16 03:35:24;;;;;;;;;;;;;;;18.18;65.15;100865.24;2216744;79;49800;-77
2023/04/16 03:38:26;;;;;;;;;;;;;;;18.17;65.08;100869.77;2243490;78;51472;-77
2023/04/16 03:41:27;;;;;;;;;;;;;;;18.14;65.13;100868.79;2259322;78;51649;-76
2023/04/16 03:44:29;;;;;;;;;;;;;;;18.14;65.14;100870.13;2225092;78;51525;-75
2023/04/16 03:47:31;;;;;;;;;;;;;;;18.15;65.14;100870.45;2241068;78;50629;-75
2023/04/16 03:50:32;;;;;;;;;;;;;;;18.18;65.08;100874.62;2238572;78;50688;-76
2023/04/16 03:53:34;;;;;;;;;;;;;;;18.17;65.16;100876.98;2238908;78;51524;-75
2023/04/16 03:56:35;;;;;;;;;;;;;;;18.15;65.26;100886.52;2217521;78;51685;-76
2023/04/16 03:59:37;;;;;;;;;;;;;;;18.13;65.36;100881.83;2234780;78;50764;-77
2023/04/16 04:02:38;;;;;;;;;;;;;;;18.14;65.02;100887.53;2229378;78;51448;-76
2023/04/16 04:05:40;;;;;;;;;;;;;;;18.13;65.22;100895.73;2240374;78;50852;-77
2023/04/16 04:08:42;;;;;;;;;;;;;;;18.15;65.09;100892.38;2253398;78;52385;-77
2023/04/16 04:11:43;;;;;;;;;;;;;;;18.14;65.01;100893.41;2243684;78;50655;-77
2023/04/16 04:14:45;;;;;;;;;;;;;;;18.16;64.79;100899.39;2243673;78;50754;-78
2023/04/16 04:17:46;;;;;;;;;;;;;;;18.15;64.80;100897.23;2225213;78;51585;-77
2023/04/16 04:20:48;;;;;;;;;;;;;;;18.16;64.74;100904.75;2207389;80;52417;-77
2023/04/16 04:23:50;;;;;;;;;;;;;;;18.16;64.80;100908.77;2207322;80;51553;-76
2023/04/16 04:26:51;;;;;;;;;;;;;;;18.16;64.76;100911.45;2230188;80;50675;-78
2023/04/16 04:29:53;;;;;;;;;;;;;;;18.14;64.77;100917.00;2242543;78;50161;-78
2023/04/16 04:32:54;;;;;;;;;;;;;;;18.16;64.71;100919.48;2213080;78;49542;-76
2023/04/16 04:35:56;;;;;;;;;;;;;;;18.18;64.67;100917.47;2266913;78;50415;-77
2023/04/16 04:38:58;;;;;;;;;;;;;;;18.16;64.74;100913.64;2243894;78;50443;-77
2023/04/16 04:42:01;;;;;;;;;;;;;;;18.16;64.94;100924.36;2267026;78;50160;-74
2023/04/16 04:45:02;;;;;;;;;;;;;;;18.16;65.23;100918.14;2266817;78;22422;-74
2023/04/16 04:48:04;;;;;;;;;;;;;;;18.18;65.40;100913.45;2243776;78;51479;-74
2023/04/16 04:51:06;;;;;;;;;;;;;;;18.15;65.44;100925.34;2243202;78;50280;-74
2023/04/16 04:54:07;;;;;;;;;;;;;;;18.16;65.42;100928.85;2243400;78;50295;-74
2023/04/16 04:57:09;;;;;;;;;;;;;;;18.16;65.23;100931.53;2219540;78;51268;-75
2023/04/16 05:00:11;;;;;;;;;;;;;;;18.18;65.26;100934.88;2217878;78;50434;-76
2023/04/16 05:03:12;;;;;;;;;;;;;;;18.19;64.95;100940.59;2232451;78;50406;-77
2023/04/16 05:06:14;;;;;;;;;;;;;;;18.19;65.19;100945.94;2229481;80;50761;-75
2023/04/16 05:09:16;;;;;;;;;;;;;;;18.17;64.08;100948.78;2206984;80;51160;-76
2023/04/16 05:12:17;;;;;;;;;;;;;;;18.15;63.67;100943.27;2229745;80;51569;-75
2023/04/16 05:15:19;;;;;;;;;;;;;;;18.13;63.57;100947.95;2206974;80;50271;-76
2023/04/16 05:18:21;;;;;;;;;;;;;;;18.12;63.62;100957.00;2229534;80;51428;-76
2023/04/16 05:21:22;;;;;;;;;;;;;;;18.09;63.65;100956.84;2183518;80;51365;-75
2023/04/16 05:24:24;;;;;;;;;;;;;;;18.08;63.51;100957.00;2206763;80;50347;-74
2023/04/16 05:27:25;;;;;;;;;;;;;;;18.09;63.74;100969.41;2206937;80;50352;-76
2023/04/16 05:30:27;;;;;;;;;;;;;;;18.09;63.78;100972.09;2252508;78;50747;-75
2023/04/16 05:33:29;;;;;;;;;;;;;;;18.07;63.58;100969.56;2243364;78;52561;-75
2023/04/16 05:36:30;;;;;;;;;;;;;;;18.06;63.48;100965.23;2243426;78;50675;-75
2023/04/16 05:39:32;;;;;;;;;;;;;;;18.05;63.38;100969.73;2243428;78;51423;-74
2023/04/16 05:42:33;;;;;;;;;;;;;;;18.04;63.32;100974.77;2243337;78;51423;-74
2023/04/16 05:45:39;;;;;;;;;;;;;;;18.04;63.32;100974.77;2219126;78;50097;-75
2023/04/16 05:48:38;;;;;;;;;;;;;;;18.04;63.32;100977.44;2241528;78;23135;-78
2023/04/16 05:51:40;;;;;;;;;;;;;;;18.07;63.67;100968.23;2242375;78;51968;-77
2023/04/16 05:54:41;;;;;;;;;;;;;;;18.17;64.15;100980.09;2266515;78;51451;-76
2023/04/16 05:57:43;;;;;;;;;;;;;;;18.22;64.20;100978.56;2230251;79;52351;-76
2023/04/16 06:00:44;;;;;;;;;;;;;;;18.27;64.20;100988.25;2165927;80;51134;-75
2023/04/16 06:03:46;;;;;;;;;;;;;;;18.30;64.13;100986.24;2248888;78;50693;-75
2023/04/16 06:06:47;;;;;;;;;;;;;;;18.32;64.04;100990.93;2266928;78;50284;-76
2023/04/16 06:09:49;;;;;;;;;;;;;;;18.29;64.14;100996.13;2241758;78;51685;-75
2023/04/16 06:12:51;;;;;;;;;;;;;;;18.27;63.99;100998.14;2243537;78;50309;-76
2023/04/16 06:15:52;;;;;;;;;;;;;;;18.26;63.77;101001.80;2243355;78;50662;-76
2023/04/16 06:18:54;;;;;;;;;;;;;;;18.26;63.63;101011.18;2240276;78;50706;-79
2023/04/16 06:21:56;;;;;;;;;;;;;;;18.25;63.57;101013.54;2229492;78;51201;-76
2023/04/16 06:24:58;;;;;;;;;;;;;;;18.20;63.50;101011.88;2288794;77;51540;-76
2023/04/16 06:28:00;;;;;;;;;;;;;;;18.25;63.42;101011.69;2288882;77;50734;-77
2023/04/16 06:31:01;;;;;;;;;;;;;;;18.25;63.35;101014.38;2225023;79;51519;-75
2023/04/16 06:34:03;;;;;;;;;;;;;;;18.18;63.39;101009.36;2208056;80;51792;-75
2023/04/16 06:37:04;;;;;;;;;;;;;;;18.15;63.37;101009.71;2229941;80;51456;-76
2023/04/16 06:40:08;;;;;;;;;;;;;;;18.14;63.33;101016.08;2244332;78;51480;-76
2023/04/16 06:43:09;;;;;;;;;;;;;;;18.14;63.27;101014.75;2254584;78;50503;-74
2023/04/16 06:46:11;;;;;;;;;;;;;;;18.14;63.20;101012.58;2220351;78;52467;-75
2023/04/16 06:49:12;;;;;;;;;;;;;;;18.11;63.27;101014.23;2255189;78;51464;-75
2023/04/16 06:52:14;;;;;;;;;;;;;;;18.13;63.29;101017.58;2250785;78;51576;-75
2023/04/16 06:55:16;;;;;;;;;;;;;;;18.13;63.28;101017.07;2264401;78;51434;-75
2023/04/16 06:58:17;;;;;;;;;;;;;;;18.13;63.23;101025.61;2280847;77;51141;-74
2023/04/16 07:01:19;;;;;;;;;;;;;;;18.12;63.23;101026.63;2252755;78;50263;-73
2023/04/16 07:04:20;;;;;;;;;;;;;;;18.11;63.16;101036.52;2288678;77;50260;-75
2023/04/16 07:07:22;;;;;;;;;;;;;;;18.14;63.36;101034.00;2288905;77;50758;-75
2023/04/16 07:10:24;;;;;;;;;;;;;;;18.14;63.89;101028.64;2239672;78;52471;-75
2023/04/16 07:13:26;;;;;;;;;;;;;;;18.13;64.65;101033.65;2264541;78;50385;-75
2023/04/16 07:16:28;;;;;;;;;;;;;;;18.15;64.22;101035.66;2264213;78;51585;-74
2023/04/16 07:19:31;;;;;;;;;;;;;;;18.14;63.78;101040.70;2281548;77;50318;-74
2023/04/16 07:22:33;;;;;;;;;;;;;;;18.12;63.79;101042.70;2235035;78;50771;-74
2023/04/16 07:25:34;;;;;;;;;;;;;;;18.14;63.55;101040.70;2188224;79;50403;-73
2023/04/16 07:28:36;;;;;;;;;;;;;;;18.12;64.45;101044.88;2235364;78;50699;-74
2023/04/16 07:31:37;;;;;;;;;;;;;;;18.11;64.00;101046.37;2252839;79;50516;-74
2023/04/16 07:34:39;;;;;;;;;;;;;;;18.12;63.71;101052.91;2251193;77;51211;-74
2023/04/16 07:37:41;;;;;;;;;;;;;;;18.12;63.65;101054.75;2215254;78;50637;-76
2023/04/16 07:40:42;;;;;;;;;;;;;;;18.11;63.63;101062.44;2211125;78;50250;-75
2023/04/16 07:43:44;;;;;;;;;;;;;;;18.14;63.60;101058.94;2231339;78;50007;-74
2023/04/16 07:46:46;;;;;;;;;;;;;;;18.14;63.45;101062.12;2182528;78;50687;-75
2023/04/16 07:49:47;;;;;;;;;;;;;;;18.09;63.48;101060.45;2231994;79;51346;-75
2023/04/16 07:52:49;;;;;;;;;;;;;;;18.10;63.41;101071.48;2237474;78;51373;-74
2023/04/16 07:55:50;;;;;;;;;;;;;;;18.12;63.31;101074.84;2237759;78;51489;-74
2023/04/16 07:58:52;;;;;;;;;;;;;;;18.12;63.29;101074.84;2237863;78;52603;-74
2023/04/16 08:01:54;;;;;;;;;;;;;;;18.10;63.24;101077.67;2258847;78;51419;-74
2023/04/16 08:04:55;;;;;;;;;;;;;;;18.12;63.19;101082.88;2258507;78;51601;-73
2023/04/16 08:07:57;;;;;;;;;;;;;;;18.18;63.00;101080.84;2249579;78;51459;-74
2023/04/16 08:10:58;;;;;;;;;;;;;;;18.15;62.97;101082.02;2252738;79;51607;-76
2023/04/16 08:14:00;;;;;;;;;;;;;;;18.14;63.02;101088.91;2252531;79;50365;-75
2023/04/16 08:17:02;;;;;;;;;;;;;;;18.11;63.05;101086.54;2256424;78;50367;-74
2023/04/16 08:20:04;;;;;;;;;;;;;;;18.10;63.10;101092.91;2236471;78;50142;-75
2023/04/16 08:23:05;;;;;;;;;;;;;;;18.11;63.07;101092.75;2214735;79;50336;-76
2023/04/16 08:26:07;;;;;;;;;;;;;;;18.11;63.07;101103.95;2221287;79;50355;-75
2023/04/16 08:29:08;;;;;;;;;;;;;;;18.09;63.05;101100.63;2222300;79;50204;-74
2023/04/16 08:32:10;;;;;;;;;;;;;;;18.10;63.02;101110.32;2221083;79;50337;-75
2023/04/16 08:35:12;;;;;;;;;;;;;;;18.08;63.13;101105.63;2229028;79;50345;-75
2023/04/16 08:38:13;;;;;;;;;;;;;;;18.06;63.08;101110.66;2243276;78;50731;-75
2023/04/16 08:41:15;;;;;;;;;;;;;;;18.07;63.07;101110.16;2242117;78;50339;-75
2023/04/16 08:44:20;;;;;;;;;;;;;;;18.08;63.01;101114.49;2236009;78;50266;-74
2023/04/16 08:47:22;;;;;;;;;;;;;;;18.08;63.00;101120.36;2239022;78;51727;-74
2023/04/16 08:50:24;;;;;;;;;;;;;;;18.09;62.92;101120.20;2231812;78;51605;-76
2023/04/16 08:53:27;;;;;;;;;;;;;;;18.06;63.08;101117.86;2231893;79;50461;-75
2023/04/16 08:56:29;;;;;;;;;;;;;;;18.04;63.71;101128.73;2252645;78;51541;-74
2023/04/16 08:59:30;;;;;;;;;;;;;;;18.03;63.66;101121.72;2280943;77;51160;-74
2023/04/16 09:02:32;;;;;;;;;;;;;;;18.05;63.52;101136.25;2254642;77;51164;-74
2023/04/16 09:05:33;;;;;;;;;;;;;;;18.09;63.43;101132.76;2260273;78;50306;-73
2023/04/16 09:08:35;;;;;;;;;;;;;;;18.11;63.18;101141.44;2260199;78;50306;-74
2023/04/16 09:11:38;;;;;;;;;;;;;;;18.16;62.94;101143.11;2238352;78;52333;-74
2023/04/16 09:14:40;;;;;;;;;;;;;;;18.17;62.85;101140.28;2222517;78;50315;-74
2023/04/16 09:17:42;;;;;;;;;;;;;;;18.17;62.76;101148.82;2248771;78;51650;-75
2023/04/16 09:20:44;;;;;;;;;;;;;;;18.15;62.79;101148.14;2248596;78;51522;-75
2023/04/16 09:23:45;;;;;;;;;;;;;;;18.11;63.34;101148.13;2208988;80;51036;-73
2023/04/16 09:26:47;;;;;;;;;;;;;;;18.09;63.66;101157.69;2229823;80;51460;-73
2023/04/16 09:29:49;;;;;;;;;;;;;;;18.13;64.16;101159.52;2233794;78;51557;-77
2023/04/16 09:32:51;;;;;;;;;;;;;;;18.13;64.41;101160.35;2260843;78;50349;-77
2023/04/16 09:35:52;;;;;;;;;;;;;;;18.11;64.08;101160.19;2264290;78;52463;-77
2023/04/16 09:38:54;;;;;;;;;;;;;;;18.09;63.79;101163.05;2260862;78;51503;-76
2023/04/16 09:41:56;;;;;;;;;;;;;;;18.10;63.68;101163.38;2261040;78;52397;-77
2023/04/16 09:44:58;;;;;;;;;;;;;;;18.09;63.54;101163.05;2264950;78;51628;-78
2023/04/16 09:48:01;;;;;;;;;;;;;;;18.10;63.51;101168.73;2265079;78;50291;-77
2023/04/16 09:51:02;;;;;;;;;;;;;;;18.10;63.51;101172.75;2245487;78;50789;-77
2023/04/16 09:54:05;;;;;;;;;;;;;;;18.08;63.59;101175.25;2209664;80;50505;-77
2023/04/16 09:57:07;;;;;;;;;;;;;;;18.07;63.76;101173.08;2230143;80;50905;-79
2023/04/16 10:00:09;;;;;;;;;;;;;;;18.08;63.76;101180.61;2209605;80;52488;-79
2023/04/16 10:03:10;;;;;;;;;;;;;;;18.08;63.72;101179.27;2209910;80;49964;-79
2023/04/16 10:06:13;;;;;;;;;;;;;;;18.09;63.61;101180.97;2209546;80;49965;-79
2023/04/16 10:09:15;;;;;;;;;;;;;;;18.09;64.37;101171.59;2260192;78;50728;-78
2023/04/16 10:12:16;;;;;;;;;;;;;;;18.10;64.39;101182.63;2264784;78;51566;-79
2023/04/16 10:15:18;;;;;;;;;;;;;;;18.09;64.63;101184.47;2264523;78;51517;-76
2023/04/16 10:18:20;;;;;;;;;;;;;;;18.08;64.54;101186.80;2261079;78;51474;-78
2023/04/16 10:21:21;;;;;;;;;;;;;;;18.09;64.67;101188.49;2239897;78;50311;-78
2023/04/16 10:24:23;;;;;;;;;;;;;;;18.10;64.33;101186.64;2281461;76;50418;-77
2023/04/16 10:27:25;;;;;;;;;;;;;;;18.12;64.58;101186.81;2289080;77;50651;-75
2023/04/16 10:30:26;;;;;;;;;;;;;;;18.14;64.42;101193.35;2260875;78;51479;-75
2023/04/16 10:33:29;;;;;;;;;;;;;;;18.16;64.44;101188.64;2260772;78;51431;-75
2023/04/16 10:36:30;;;;;;;;;;;;;;;18.17;64.50;101194.35;2281018;77;51763;-75
2023/04/16 10:39:35;;;;;;;;;;;;;;;18.18;64.66;101193.34;2289120;77;50722;-74
2023/04/16 10:42:37;;;;;;;;;;;;;;;18.21;64.84;101193.86;2249704;79;22227;-73
2023/04/16 10:45:38;;;;;;;;;;;;;;;18.22;64.61;101189.33;2252651;78;50300;-74
2023/04/16 10:48:41;;;;;;;;;;;;;;;18.22;65.15;101191.50;2245550;78;51091;-75
2023/04/16 10:51:43;;;;;;;;;;;;;;;18.22;64.96;101198.20;2196793;80;50924;-74
2023/04/16 10:54:45;;;;;;;;;;;;;;;18.25;64.87;101202.38;2202023;80;50736;-75
2023/04/16 10:57:48;;;;;;;;;;;;;;;18.24;65.08;101204.23;2202097;80;50718;-76
2023/04/16 11:00:52;;;;;;;;;;;;;;;18.28;65.04;101210.91;2202114;80;51896;-74
2023/04/16 11:03:54;;;;;;;;;;;;;;;18.29;65.16;101205.08;2220544;78;50462;-74
2023/04/16 11:07:02;;;;;;;;;;;;;;;18.28;65.25;101207.40;2240205;78;50226;-75
2023/04/16 11:10:04;;;;;;;;;;;;;;;18.27;65.12;101203.89;2252644;78;50328;-75
2023/04/16 11:13:06;;;;;;;;;;;;;;;18.26;65.36;101208.06;2266877;78;52409;-75
2023/04/16 11:16:08;;;;;;;;;;;;;;;18.25;65.22;101207.74;2266073;78;50686;-77
2023/04/16 11:19:11;;;;;;;;;;;;;;;18.24;65.28;101216.80;2244461;78;51391;-75
2023/04/16 11:22:15;;;;;;;;;;;;;;;18.25;65.18;101214.44;2229111;78;52355;-75
2023/04/16 11:25:26;;;;;;;;;;;;;;;18.23;65.22;101217.78;2229720;78;22460;-75
2023/04/16 11:28:34;;;;;;;;;;;;;;;18.25;65.14;101223.81;2229741;80;50457;-75
2023/04/16 11:31:36;;;;;;;;;;;;;;;18.25;65.07;101221.13;2207260;80;50335;-75
2023/04/16 11:34:44;;;;;;;;;;;;;;;18.22;65.13;101222.30;2229574;80;51626;-75
2023/04/16 11:37:47;;;;;;;;;;;;;;;18.23;65.03;101221.80;2207950;80;52456;-74
2023/04/16 11:40:50;;;;;;;;;;;;;;;18.26;65.16;101224.14;2229921;80;50538;-76
2023/04/16 11:43:52;;;;;;;;;;;;;;;18.29;65.13;101226.51;2230312;80;50880;-74
2023/04/16 11:46:53;;;;;;;;;;;;;;;18.29;65.13;101226.51;2235917;78;51422;-74
2023/04/16 11:49:55;;;;;;;;;;;;;;;18.32;65.05;101222.15;2228509;78;53453;-74
2023/04/16 11:52:57;;;;;;;;;;;;;;;18.34;65.11;101235.36;2254715;79;50733;-76
2023/04/16 11:55:58;;;;;;;;;;;;;;;18.31;65.12;101225.81;2251138;79;50288;-76
2023/04/16 11:59:10;;;;;;;;;;;;;;;18.33;64.90;101227.83;2234444;78;51457;-74
2023/04/16 12:02:12;;;;;;;;;;;;;;;18.34;64.88;101229.52;2266035;77;51679;-75
2023/04/16 12:05:30;;;;;;;;;;;;;;;18.35;64.85;101227.67;2264337;78;50310;-74
2023/04/16 12:08:32;;;;;;;;;;;;;;;18.37;64.71;101233.20;2238785;78;50406;-76
2023/04/16 12:11:40;;;;;;;;;;;;;;;18.35;64.64;101233.03;2258197;78;50450;-74
2023/04/16 12:14:43;;;;;;;;;;;;;;;18.33;64.61;101239.89;2209938;78;52457;-73
2023/04/16 12:17:45;;;;;;;;;;;;;;;18.32;64.62;101241.41;2253575;78;51535;-73
2023/04/16 12:20:46;;;;;;;;;;;;;;;18.32;64.56;101236.05;2259457;78;50807;-73
2023/04/16 12:23:48;;;;;;;;;;;;;;;18.31;64.58;101235.19;2246466;77;50780;-75
2023/04/16 12:26:55;;;;;;;;;;;;;;;18.31;64.47;101238.38;2187771;78;51250;-74
2023/04/16 12:30:04;;;;;;;;;;;;;;;18.27;64.61;101243.24;2218649;78;22344;-74
2023/04/16 12:33:18;;;;;;;;;;;;;;;18.29;64.57;101243.92;2254423;78;51513;-74
2023/04/16 12:36:20;;;;;;;;;;;;;;;18.28;64.48;101246.24;2237456;78;51577;-73
2023/04/16 12:39:21;;;;;;;;;;;;;;;18.27;64.47;101249.44;2196864;78;51187;-75
2023/04/16 12:42:23;;;;;;;;;;;;;;;18.27;64.49;101248.60;2190831;78;52523;-75
2023/04/16 12:45:25;;;;;;;;;;;;;;;18.26;64.49;101249.11;2250773;78;49761;-75
2023/04/16 12:48:26;;;;;;;;;;;;;;;18.26;64.64;101248.25;2249361;77;51446;-74
2023/04/16 12:51:28;;;;;;;;;;;;;;;18.27;64.58;101257.98;2255312;78;50994;-74
2023/04/16 12:54:30;;;;;;;;;;;;;;;18.27;64.55;101256.64;2216966;78;52321;-74
2023/04/16 12:57:31;;;;;;;;;;;;;;;18.27;64.48;101252.62;2241262;77;51621;-74
2023/04/16 13:00:33;;;;;;;;;;;;;;;18.26;64.44;101254.94;2248475;78;50650;-73
2023/04/16 13:03:35;;;;;;;;;;;;;;;18.23;64.39;101252.09;2222537;78;51546;-74
2023/04/16 13:06:37;;;;;;;;;;;;;;;18.27;64.33;101256.12;2243857;78;52424;-73
2023/04/16 13:09:39;;;;;;;;;;;;;;;18.24;64.44;101265.84;2246448;78;51419;-73
2023/04/16 13:12:41;;;;;;;;;;;;;;;18.25;64.38;101261.31;2222423;80;50054;-74
2023/04/16 13:15:43;;;;;;;;;;;;;;;18.24;64.43;101273.87;2228919;78;50691;-74
2023/04/16 13:18:44;;;;;;;;;;;;;;;18.22;64.40;101271.86;2238901;79;51439;-73
2023/04/16 13:21:46;;;;;;;;;;;;;;;18.23;64.46;101276.70;2238194;78;50519;-75
2023/04/16 13:24:47;;;;;;;;;;;;;;;18.24;64.51;101280.58;2265449;78;50240;-74
2023/04/16 13:27:49;;;;;;;;;;;;;;;18.24;64.59;101283.25;2234332;78;50253;-74
2023/04/16 13:30:50;;;;;;;;;;;;;;;18.23;64.57;101280.73;2199170;79;51680;-74
2023/04/16 13:33:52;;;;;;;;;;;;;;;18.27;64.48;101282.09;2233991;79;51471;-73
2023/04/16 13:36:54;;;;;;;;;;;;;;;18.26;64.40;101279.05;2248137;78;50609;-73
2023/04/16 13:39:55;;;;;;;;;;;;;;;18.25;64.45;101281.41;2231507;78;50628;-74
2023/04/16 13:42:57;;;;;;;;;;;;;;;18.25;64.48;101281.41;2212530;78;49607;-74
2023/04/16 13:45:59;;;;;;;;;;;;;;;18.27;64.55;101287.45;2236182;78;50360;-73
2023/04/16 13:49:01;;;;;;;;;;;;;;;18.25;64.43;101281.41;2254429;78;51576;-72
2023/04/16 13:52:03;;;;;;;;;;;;;;;18.24;64.48;101281.91;2256812;78;51542;-72
2023/04/16 13:55:05;;;;;;;;;;;;;;;18.27;64.43;101282.09;2217906;79;50095;-72
2023/04/16 13:58:06;;;;;;;;;;;;;;;18.25;64.49;101276.88;2207332;80;51677;-72
2023/04/16 14:01:09;;;;;;;;;;;;;;;18.25;64.48;101276.88;2257847;78;51454;-74
2023/04/16 14:04:10;;;;;;;;;;;;;;;18.26;64.34;101278.58;2267463;78;51497;-73
2023/04/16 14:07:12;;;;;;;;;;;;;;;18.26;64.25;101279.05;2219655;78;54301;-74
2023/04/16 14:10:13;;;;;;;;;;;;;;;18.27;64.12;101276.73;2244097;78;50807;-73
2023/04/16 14:13:15;;;;;;;;;;;;;;;18.22;63.91;101277.73;2267290;78;51619;-73
2023/04/16 14:16:17;;;;;;;;;;;;;;;18.19;63.78;101275.38;2267069;78;52286;-74
2023/04/16 14:19:18;;;;;;;;;;;;;;;18.19;63.74;101280.74;2220124;78;52384;-73
2023/04/16 14:22:20;;;;;;;;;;;;;;;18.16;63.70;101271.20;2258563;78;50285;-74
2023/04/16 14:25:21;;;;;;;;;;;;;;;18.16;63.71;101277.03;2231120;78;50436;-74
2023/04/16 14:28:23;;;;;;;;;;;;;;;18.15;63.72;101271.34;2254717;78;50288;-74
2023/04/16 14:31:24;;;;;;;;;;;;;;;18.13;63.68;101272.84;2219885;78;49315;-74
2023/04/16 14:34:26;;;;;;;;;;;;;;;18.13;63.83;101273.34;2267256;78;50280;-74
2023/04/16 14:37:28;;;;;;;;;;;;;;;18.11;63.81;101276.68;2243872;78;50420;-74
2023/04/16 14:40:29;;;;;;;;;;;;;;;18.11;63.72;101284.72;2267359;78;50795;-74
2023/04/16 14:43:31;;;;;;;;;;;;;;;18.09;63.68;101281.39;2243570;78;51756;-74
2023/04/16 14:46:32;;;;;;;;;;;;;;;18.10;63.55;101283.05;2243673;78;50658;-74
2023/04/16 14:49:34;;;;;;;;;;;;;;;18.09;63.55;101278.71;2243951;78;51445;-74
2023/04/16 14:52:36;;;;;;;;;;;;;;;18.09;63.53;101287.58;2229232;78;50886;-73
2023/04/16 14:55:37;;;;;;;;;;;;;;;18.10;63.51;101287.07;2229046;78;50962;-74
2023/04/16 14:58:41;;;;;;;;;;;;;;;18.10;63.47;101287.07;2230011;80;51483;-74
2023/04/16 15:01:42;;;;;;;;;;;;;;;18.10;63.59;101289.75;2230492;80;22355;-74
2023/04/16 15:04:44;;;;;;;;;;;;;;;18.08;63.59;101293.91;2248432;78;50400;-75
2023/04/16 15:07:45;;;;;;;;;;;;;;;18.05;63.59;101291.06;2262508;77;51190;-75
2023/04/16 15:10:47;;;;;;;;;;;;;;;18.05;63.82;101299.61;2233928;78;50244;-75
2023/04/16 15:13:48;;;;;;;;;;;;;;;18.03;63.88;101294.43;2267139;78;50272;-75
2023/04/16 15:16:50;;;;;;;;;;;;;;;18.04;63.79;101304.13;2243834;78;50488;-74
2023/04/16 15:19:52;;;;;;;;;;;;;;;18.06;63.72;101310.67;2218917;78;51132;-74
2023/04/16 15:22:54;;;;;;;;;;;;;;;18.08;63.70;101307.81;2213716;79;51549;-74
2023/04/16 15:25:55;;;;;;;;;;;;;;;18.11;63.52;101312.84;2207141;80;53625;-76
2023/04/16 15:28:57;;;;;;;;;;;;;;;18.12;63.54;101315.36;2238301;78;51418;-73
2023/04/16 15:31:58;;;;;;;;;;;;;;;18.16;63.74;101307.83;2231384;78;51245;-74